Wetterdaten: Sonntag, 24.05.2015
Datum Zeit Auen-Temp. Temp gefhlt Luftfeuchte Luftdruck Regen Wind Richtung Richtung Taupunkt Windben
24.05.2015 00:00 6,4 C 6,3 C 90 % 1017,5 hPa 0,0 mm 0,0 km/h (0 Bft) O-SO 112 4,9 C 0,0 km/h (0 Bft)
24.05.2015 00:05 6,4 C 6,3 C 90 % 1017,5 hPa 0,0 mm 0,0 km/h (0 Bft) N 360 4,9 C 0,0 km/h (0 Bft)
24.05.2015 00:10 6,3 C 6,3 C 87 % 1017,5 hPa 0,0 mm 0,0 km/h (0 Bft) O-NO 67 4,3 C 0,0 km/h (0 Bft)
24.05.2015 00:15 6,3 C 6,3 C 87 % 1017,4 hPa 0,0 mm 0,0 km/h (0 Bft) N 360 4,3 C 0,0 km/h (0 Bft)
24.05.2015 00:20 6,3 C 6,3 C 87 % 1017,4 hPa 0,0 mm 0,3 km/h (0 Bft) NO 45 4,3 C 3,4 km/h (1 Bft)
24.05.2015 00:25 6,3 C 6,2 C 90 % 1017,4 hPa 0,0 mm 0,0 km/h (0 Bft) N-NO 22 4,8 C 0,0 km/h (0 Bft)
24.05.2015 00:30 6,3 C 6,2 C 90 % 1017,4 hPa 0,7 mm 0,0 km/h (0 Bft) N-NO 22 4,8 C 0,0 km/h (0 Bft)
24.05.2015 00:35 6,3 C 6,2 C 90 % 1017,6 hPa 0,0 mm 0,0 km/h (0 Bft) O-NO 67 4,8 C 0,0 km/h (0 Bft)
24.05.2015 00:40 6,3 C 6,2 C 90 % 1017,6 hPa 0,0 mm 0,0 km/h (0 Bft) NW 315 4,8 C 0,0 km/h (0 Bft)
24.05.2015 00:45 6,2 C 6,2 C 87 % 1017,6 hPa 0,0 mm 0,0 km/h (0 Bft) O-NO 67 4,2 C 0,0 km/h (0 Bft)
24.05.2015 00:50 6,2 C 6,1 C 87 % 1017,6 hPa 0,0 mm 0,0 km/h (0 Bft) N-NO 22 4,2 C 0,0 km/h (0 Bft)
24.05.2015 00:55 6,2 C 6,1 C 90 % 1017,2 hPa 0,0 mm 0,0 km/h (0 Bft) N-NO 22 4,7 C 0,0 km/h (0 Bft)
24.05.2015 01:00 6,2 C 6,1 C 90 % 1017,2 hPa 0,0 mm 0,3 km/h (0 Bft) N-NW 337 4,7 C 0,0 km/h (0 Bft)
24.05.2015 01:05 6,2 C 6,2 C 87 % 1017,2 hPa 0,0 mm 0,3 km/h (0 Bft) W 270 4,2 C 4,7 km/h (1 Bft)
24.05.2015 01:10 6,2 C 6,2 C 88 % 1017,2 hPa 0,0 mm 0,0 km/h (0 Bft) O-NO 67 4,4 C 0,0 km/h (0 Bft)
24.05.2015 01:15 6,2 C 6,2 C 88 % 1017,1 hPa 0,0 mm 0,0 km/h (0 Bft) NO 45 4,4 C 0,0 km/h (0 Bft)
24.05.2015 01:20 6,2 C 6,1 C 90 % 1017,1 hPa 0,0 mm 0,0 km/h (0 Bft) SO 135 4,7 C 0,0 km/h (0 Bft)
24.05.2015 01:25 6,2 C 6,2 C 88 % 1017,1 hPa 0,0 mm 0,0 km/h (0 Bft) NO 45 4,4 C 0,0 km/h (0 Bft)
24.05.2015 01:30 6,2 C 6,2 C 88 % 1017,1 hPa 0,0 mm 0,0 km/h (0 Bft) NW 315 4,4 C 0,0 km/h (0 Bft)
24.05.2015 01:35 6,2 C 6,1 C 90 % 1017,1 hPa 0,0 mm 0,0 km/h (0 Bft) S 180 4,7 C 0,0 km/h (0 Bft)
24.05.2015 01:40 6,2 C 6,2 C 88 % 1017,1 hPa 0,0 mm 0,0 km/h (0 Bft) N 360 4,4 C 0,0 km/h (0 Bft)
24.05.2015 01:45 6,2 C 6,1 C 90 % 1017,1 hPa 0,0 mm 0,0 km/h (0 Bft) NW 315 4,7 C 0,0 km/h (0 Bft)
24.05.2015 01:50 6,2 C 6,1 C 90 % 1017,1 hPa 0,0 mm 0,0 km/h (0 Bft) N-NO 22 4,7 C 0,0 km/h (0 Bft)
24.05.2015 01:55 6,2 C 6,1 C 90 % 1016,8 hPa 0,0 mm 0,0 km/h (0 Bft) O-NO 67 4,7 C 0,0 km/h (0 Bft)
24.05.2015 02:00 6,2 C 6,1 C 90 % 1016,8 hPa 0,0 mm 0,0 km/h (0 Bft) O-SO 112 4,7 C 0,0 km/h (0 Bft)
24.05.2015 02:05 6,2 C 6,2 C 88 % 1016,8 hPa 0,0 mm 0,0 km/h (0 Bft) S 180 4,4 C 0,0 km/h (0 Bft)
24.05.2015 02:10 6,2 C 6,2 C 88 % 1016,8 hPa 0,7 mm 0,0 km/h (0 Bft) O 90 4,4 C 0,0 km/h (0 Bft)
24.05.2015 02:15 6,2 C 6,1 C 90 % 1016,8 hPa 0,0 mm 0,0 km/h (0 Bft) N-NO 22 4,7 C 0,0 km/h (0 Bft)
24.05.2015 02:20 6,2 C 6,1 C 90 % 1016,8 hPa 0,0 mm 0,0 km/h (0 Bft) O-NO 67 4,7 C 0,0 km/h (0 Bft)
24.05.2015 02:25 6,2 C 6,1 C 90 % 1016,8 hPa 0,0 mm 0,0 km/h (0 Bft) W-SW 247 4,7 C 0,0 km/h (0 Bft)
24.05.2015 02:30 6,2 C 6,1 C 90 % 1016,8 hPa 0,0 mm 0,0 km/h (0 Bft) S 180 4,7 C 0,0 km/h (0 Bft)
24.05.2015 02:35 6,2 C 6,1 C 90 % 1016,6 hPa 0,0 mm 0,0 km/h (0 Bft) W 270 4,7 C 0,0 km/h (0 Bft)
24.05.2015 02:40 6,2 C 6,1 C 90 % 1016,6 hPa 0,0 mm 0,0 km/h (0 Bft) SW 225 4,7 C 3,6 km/h (1 Bft)
24.05.2015 02:45 6,2 C 6,1 C 90 % 1016,6 hPa 0,0 mm 0,3 km/h (0 Bft) W-SW 247 4,7 C 0,0 km/h (0 Bft)
24.05.2015 02:50 6,2 C 6,1 C 90 % 1016,6 hPa 0,0 mm 0,3 km/h (0 Bft) NW 315 4,7 C 0,0 km/h (0 Bft)
24.05.2015 02:55 6,2 C 6,1 C 90 % 1016,6 hPa 0,0 mm 0,0 km/h (0 Bft) W-SW 247 4,7 C 0,0 km/h (0 Bft)
24.05.2015 03:00 6,2 C 6,1 C 90 % 1016,6 hPa 0,0 mm 0,0 km/h (0 Bft) O-NO 67 4,7 C 0,0 km/h (0 Bft)
24.05.2015 03:05 6,2 C 6,1 C 90 % 1016,6 hPa 0,0 mm 0,0 km/h (0 Bft) NO 45 4,7 C 0,0 km/h (0 Bft)
24.05.2015 03:10 6,2 C 6,1 C 90 % 1016,6 hPa 0,0 mm 0,0 km/h (0 Bft) O-NO 67 4,7 C 0,0 km/h (0 Bft)
24.05.2015 03:15 6,1 C 6,0 C 90 % 1016,3 hPa 0,0 mm 0,0 km/h (0 Bft) O-NO 67 4,6 C 0,0 km/h (0 Bft)
24.05.2015 03:20 6,1 C 6,0 C 88 % 1016,3 hPa 0,0 mm 0,0 km/h (0 Bft) N-NO 22 4,3 C 0,0 km/h (0 Bft)
24.05.2015 03:25 6,1 C 6,0 C 88 % 1016,3 hPa 0,0 mm 0,0 km/h (0 Bft) O-NO 67 4,3 C 0,0 km/h (0 Bft)
24.05.2015 03:30 6,1 C 6,0 C 90 % 1016,3 hPa 0,0 mm 0,0 km/h (0 Bft) NO 45 4,6 C 0,0 km/h (0 Bft)
24.05.2015 03:35 6,1 C 6,0 C 88 % 1016,4 hPa 0,0 mm 0,0 km/h (0 Bft) O-NO 67 4,3 C 0,0 km/h (0 Bft)
24.05.2015 03:40 6,1 C 6,0 C 90 % 1016,4 hPa 0,0 mm 0,0 km/h (0 Bft) O-NO 67 4,6 C 0,0 km/h (0 Bft)
24.05.2015 03:45 6,1 C 6,0 C 90 % 1016,4 hPa 0,0 mm 0,0 km/h (0 Bft) O-SO 112 4,6 C 0,0 km/h (0 Bft)
24.05.2015 03:50 6,1 C 6,0 C 90 % 1016,4 hPa 0,7 mm 0,0 km/h (0 Bft) NO 45 4,6 C 0,0 km/h (0 Bft)
24.05.2015 03:55 6,1 C 6,0 C 90 % 1016,3 hPa 0,0 mm 0,0 km/h (0 Bft) O-NO 67 4,6 C 0,0 km/h (0 Bft)
24.05.2015 04:00 6,1 C 6,1 C 88 % 1016,3 hPa 0,0 mm 0,0 km/h (0 Bft) O-NO 67 4,3 C 0,0 km/h (0 Bft)
24.05.2015 04:05 6,1 C 6,1 C 88 % 1016,3 hPa 0,0 mm 0,0 km/h (0 Bft) N-NO 22 4,3 C 0,0 km/h (0 Bft)
24.05.2015 04:10 6,1 C 6,1 C 88 % 1016,3 hPa 0,0 mm 0,0 km/h (0 Bft) N-NW 337 4,3 C 0,0 km/h (0 Bft)
24.05.2015 04:15 6,1 C 6,0 C 90 % 1016,2 hPa 0,0 mm 0,0 km/h (0 Bft) N-NW 337 4,6 C 0,0 km/h (0 Bft)
24.05.2015 04:20 6,1 C 6,0 C 90 % 1016,2 hPa 0,0 mm 0,0 km/h (0 Bft) NW 315 4,6 C 0,0 km/h (0 Bft)
24.05.2015 04:25 6,1 C 6,0 C 90 % 1016,2 hPa 0,0 mm 0,0 km/h (0 Bft) NW 315 4,6 C 0,0 km/h (0 Bft)
24.05.2015 04:30 6,1 C 6,0 C 90 % 1016,2 hPa 0,0 mm 0,0 km/h (0 Bft) O-NO 67 4,6 C 0,0 km/h (0 Bft)
24.05.2015 04:35 6,1 C 6,0 C 90 % 1016,2 hPa 0,0 mm 0,0 km/h (0 Bft) O-NO 67 4,6 C 0,0 km/h (0 Bft)
24.05.2015 04:40 6,1 C 6,0 C 88 % 1016,2 hPa 0,0 mm 0,0 km/h (0 Bft) NO 45 4,3 C 0,0 km/h (0 Bft)
24.05.2015 04:45 6,1 C 6,1 C 88 % 1016,2 hPa 0,0 mm 0,0 km/h (0 Bft) O-NO 67 4,3 C 0,0 km/h (0 Bft)
24.05.2015 04:50 6,1 C 6,1 C 88 % 1016,2 hPa 0,0 mm 0,0 km/h (0 Bft) O-NO 67 4,3 C 0,0 km/h (0 Bft)
24.05.2015 04:55 6,1 C 6,1 C 88 % 1016,0 hPa 0,0 mm 0,0 km/h (0 Bft) O-NO 67 4,3 C 0,0 km/h (0 Bft)
24.05.2015 05:00 6,1 C 6,1 C 88 % 1016,0 hPa 0,0 mm 0,0 km/h (0 Bft) O-NO 67 4,3 C 0,0 km/h (0 Bft)
24.05.2015 05:05 6,1 C 6,1 C 88 % 1016,0 hPa 0,0 mm 0,0 km/h (0 Bft) O-NO 67 4,3 C 0,0 km/h (0 Bft)
24.05.2015 05:10 6,1 C 6,1 C 88 % 1016,0 hPa 0,0 mm 0,0 km/h (0 Bft) N-NW 337 4,3 C 0,0 km/h (0 Bft)
24.05.2015 05:15 6,1 C 6,1 C 88 % 1016,1 hPa 0,0 mm 0,0 km/h (0 Bft) N-NW 337 4,3 C 0,0 km/h (0 Bft)
24.05.2015 05:20 6,1 C 6,1 C 88 % 1016,1 hPa 0,0 mm 0,0 km/h (0 Bft) SO 135 4,3 C 0,0 km/h (0 Bft)
24.05.2015 05:25 6,1 C 6,1 C 88 % 1016,1 hPa 0,0 mm 0,0 km/h (0 Bft) O-SO 112 4,3 C 0,0 km/h (0 Bft)
24.05.2015 05:30 6,1 C 6,1 C 88 % 1016,1 hPa 0,0 mm 0,0 km/h (0 Bft) SO 135 4,3 C 0,0 km/h (0 Bft)
24.05.2015 05:35 6,1 C 6,1 C 88 % 1015,9 hPa 0,0 mm 0,0 km/h (0 Bft) SO 135 4,3 C 0,0 km/h (0 Bft)
24.05.2015 05:40 6,1 C 6,1 C 88 % 1015,9 hPa 0,0 mm 0,0 km/h (0 Bft) SO 135 4,3 C 0,0 km/h (0 Bft)
24.05.2015 05:45 6,2 C 6,1 C 91 % 1015,9 hPa 0,0 mm 0,0 km/h (0 Bft) SO 135 4,8 C 0,0 km/h (0 Bft)
24.05.2015 05:50 6,2 C 6,1 C 91 % 1015,9 hPa 0,0 mm 0,0 km/h (0 Bft) SO 135 4,8 C 0,0 km/h (0 Bft)
24.05.2015 05:55 6,2 C 6,2 C 88 % 1016,1 hPa 0,0 mm 0,0 km/h (0 Bft) SO 135 4,4 C 0,0 km/h (0 Bft)
24.05.2015 06:00 6,2 C 6,2 C 88 % 1016,1 hPa 0,0 mm 0,0 km/h (0 Bft) SO 135 4,4 C 0,0 km/h (0 Bft)
24.05.2015 06:05 6,2 C 6,2 C 88 % 1016,1 hPa 0,0 mm 0,0 km/h (0 Bft) SO 135 4,4 C 0,0 km/h (0 Bft)
24.05.2015 06:10 6,3 C 6,2 C 91 % 1016,1 hPa 0,0 mm 0,0 km/h (0 Bft) SO 135 4,9 C 0,0 km/h (0 Bft)
24.05.2015 06:15 6,3 C 6,3 C 88 % 1016,4 hPa 0,0 mm 0,0 km/h (0 Bft) O-NO 67 4,5 C 0,0 km/h (0 Bft)
24.05.2015 06:20 6,3 C 6,3 C 88 % 1016,4 hPa 0,0 mm 0,0 km/h (0 Bft) O-NO 67 4,5 C 0,0 km/h (0 Bft)
24.05.2015 06:25 6,3 C 6,3 C 88 % 1016,4 hPa 0,0 mm 0,0 km/h (0 Bft) O-SO 112 4,5 C 0,0 km/h (0 Bft)
24.05.2015 06:30 6,3 C 6,3 C 88 % 1016,4 hPa 0,0 mm 0,0 km/h (0 Bft) O-SO 112 4,5 C 0,0 km/h (0 Bft)
24.05.2015 06:35 6,3 C 6,3 C 88 % 1016,4 hPa 0,0 mm 0,0 km/h (0 Bft) O-NO 67 4,5 C 0,0 km/h (0 Bft)
24.05.2015 06:40 6,4 C 6,4 C 89 % 1016,4 hPa 0,0 mm 0,0 km/h (0 Bft) O-SO 112 4,7 C 0,0 km/h (0 Bft)
24.05.2015 06:45 6,4 C 6,4 C 89 % 1016,4 hPa 0,0 mm 0,0 km/h (0 Bft) O 90 4,7 C 0,0 km/h (0 Bft)
24.05.2015 06:50 6,4 C 6,4 C 89 % 1016,4 hPa 0,0 mm 0,0 km/h (0 Bft) NO 45 4,7 C 0,0 km/h (0 Bft)
24.05.2015 06:55 6,4 C 6,4 C 89 % 1016,6 hPa 0,0 mm 0,0 km/h (0 Bft) O-NO 67 4,7 C 0,0 km/h (0 Bft)
24.05.2015 07:00 6,4 C 6,5 C 89 % 1016,6 hPa 0,0 mm 0,0 km/h (0 Bft) O-SO 112 4,7 C 0,0 km/h (0 Bft)
24.05.2015 07:05 6,5 C 6,5 C 89 % 1016,6 hPa 0,0 mm 0,0 km/h (0 Bft) O-NO 67 4,8 C 0,0 km/h (0 Bft)
24.05.2015 07:10 6,5 C 6,6 C 89 % 1016,6 hPa 0,0 mm 0,0 km/h (0 Bft) O-SO 112 4,8 C 0,0 km/h (0 Bft)
24.05.2015 07:15 6,5 C 6,6 C 89 % 1016,6 hPa 0,0 mm 0,0 km/h (0 Bft) W-SW 247 4,8 C 0,0 km/h (0 Bft)
24.05.2015 07:20 6,6 C 6,7 C 89 % 1016,6 hPa 0,0 mm 0,0 km/h (0 Bft) W-NW 292 4,9 C 0,0 km/h (0 Bft)
24.05.2015 07:25 6,7 C 6,8 C 89 % 1016,6 hPa 0,0 mm 0,0 km/h (0 Bft) NW 315 5,0 C 0,0 km/h (0 Bft)
24.05.2015 07:30 6,8 C 6,9 C 89 % 1016,6 hPa 0,0 mm 0,0 km/h (0 Bft) NW 315 5,1 C 0,0 km/h (0 Bft)
24.05.2015 07:35 6,8 C 7,0 C 89 % 1016,6 hPa 0,0 mm 0,0 km/h (0 Bft) NW 315 5,1 C 0,0 km/h (0 Bft)
24.05.2015 07:40 6,9 C 7,0 C 89 % 1016,6 hPa 0,0 mm 0,0 km/h (0 Bft) N-NO 22 5,2 C 0,0 km/h (0 Bft)
24.05.2015 07:45 6,9 C 7,1 C 89 % 1016,6 hPa 0,0 mm 0,0 km/h (0 Bft) N-NW 337 5,2 C 0,0 km/h (0 Bft)
24.05.2015 07:50 7,0 C 7,2 C 88 % 1016,6 hPa 0,0 mm 0,0 km/h (0 Bft) N-NO 22 5,2 C 0,0 km/h (0 Bft)
24.05.2015 07:55 7,0 C 7,3 C 88 % 1016,8 hPa 0,0 mm 0,0 km/h (0 Bft) N-NO 22 5,2 C 0,0 km/h (0 Bft)
24.05.2015 08:00 7,0 C 7,3 C 88 % 1016,8 hPa 0,0 mm 0,0 km/h (0 Bft) NO 45 5,2 C 0,0 km/h (0 Bft)
24.05.2015 08:05 7,1 C 7,4 C 88 % 1016,8 hPa 0,0 mm 0,0 km/h (0 Bft) NO 45 5,2 C 0,0 km/h (0 Bft)
24.05.2015 08:10 7,2 C 7,5 C 88 % 1016,8 hPa 0,0 mm 0,0 km/h (0 Bft) N 360 5,3 C 0,0 km/h (0 Bft)
24.05.2015 08:15 7,3 C 7,6 C 88 % 1016,8 hPa 0,0 mm 0,0 km/h (0 Bft) NO 45 5,4 C 0,0 km/h (0 Bft)
24.05.2015 08:20 7,4 C 7,7 C 89 % 1016,8 hPa 0,0 mm 0,0 km/h (0 Bft) N-NO 22 5,7 C 0,0 km/h (0 Bft)
24.05.2015 08:25 7,4 C 7,8 C 89 % 1016,8 hPa 0,0 mm 0,0 km/h (0 Bft) N-NO 22 5,7 C 0,0 km/h (0 Bft)
24.05.2015 08:30 7,5 C 7,9 C 89 % 1016,8 hPa 0,0 mm 0,0 km/h (0 Bft) N 360 5,8 C 0,0 km/h (0 Bft)
24.05.2015 08:35 7,5 C 8,0 C 89 % 1016,9 hPa 0,0 mm 0,0 km/h (0 Bft) NW 315 5,8 C 0,0 km/h (0 Bft)
24.05.2015 08:40 7,7 C 8,1 C 89 % 1016,9 hPa 0,0 mm 0,0 km/h (0 Bft) N-NO 22 6,0 C 0,0 km/h (0 Bft)
24.05.2015 08:45 7,7 C 8,1 C 89 % 1016,9 hPa 0,0 mm 0,0 km/h (0 Bft) N-NO 22 6,0 C 0,0 km/h (0 Bft)
24.05.2015 08:50 7,8 C 8,3 C 89 % 1016,9 hPa 0,0 mm 0,0 km/h (0 Bft) W-NW 292 6,1 C 0,0 km/h (0 Bft)
24.05.2015 08:55 7,9 C 8,4 C 89 % 1017,1 hPa 0,0 mm 0,0 km/h (0 Bft) N-NW 337 6,2 C 0,0 km/h (0 Bft)
24.05.2015 09:00 7,9 C 8,4 C 88 % 1017,1 hPa 0,0 mm 0,0 km/h (0 Bft) O-NO 67 6,0 C 0,0 km/h (0 Bft)
24.05.2015 09:05 7,9 C 8,4 C 88 % 1017,1 hPa 0,0 mm 0,0 km/h (0 Bft) NO 45 6,0 C 0,0 km/h (0 Bft)
24.05.2015 09:10 8,0 C 8,6 C 88 % 1017,1 hPa 0,0 mm 0,0 km/h (0 Bft) NO 45 6,1 C 0,0 km/h (0 Bft)
24.05.2015 09:15 8,1 C 8,7 C 88 % 1017,1 hPa 0,0 mm 0,0 km/h (0 Bft) NW 315 6,2 C 0,0 km/h (0 Bft)
24.05.2015 09:20 8,3 C 8,9 C 88 % 1017,1 hPa 0,0 mm 0,0 km/h (0 Bft) N-NO 22 6,4 C 0,0 km/h (0 Bft)
24.05.2015 09:25 8,3 C 9,0 C 88 % 1017,1 hPa 0,0 mm 0,0 km/h (0 Bft) O 90 6,4 C 0,0 km/h (0 Bft)
24.05.2015 09:30 8,4 C 9,1 C 88 % 1017,1 hPa 0,0 mm 0,0 km/h (0 Bft) O-NO 67 6,5 C 0,0 km/h (0 Bft)
24.05.2015 09:35 8,5 C 9,3 C 88 % 1017,2 hPa 0,0 mm 0,0 km/h (0 Bft) N-NO 22 6,6 C 0,0 km/h (0 Bft)
24.05.2015 09:40 8,7 C 9,5 C 88 % 1017,2 hPa 0,0 mm 0,0 km/h (0 Bft) N-NO 22 6,8 C 0,0 km/h (0 Bft)
24.05.2015 09:45 8,8 C 9,6 C 88 % 1017,2 hPa 0,0 mm 0,0 km/h (0 Bft) N-NO 22 6,9 C 0,0 km/h (0 Bft)
24.05.2015 09:50 8,9 C 9,8 C 88 % 1017,2 hPa 0,0 mm 0,0 km/h (0 Bft) N 360 7,0 C 0,0 km/h (0 Bft)
24.05.2015 09:55 9,0 C 10,1 C 88 % 1017,1 hPa 0,0 mm 0,0 km/h (0 Bft) NW 315 7,1 C 0,0 km/h (0 Bft)
24.05.2015 10:00 9,2 C 10,6 C 88 % 1017,1 hPa 0,0 mm 0,0 km/h (0 Bft) O-NO 67 7,3 C 0,0 km/h (0 Bft)
24.05.2015 10:05 9,2 C 10,7 C 87 % 1017,1 hPa 0,0 mm 0,0 km/h (0 Bft) N-NO 22 7,2 C 0,0 km/h (0 Bft)
24.05.2015 10:10 9,5 C 10,9 C 87 % 1017,1 hPa 0,0 mm 0,0 km/h (0 Bft) N-NW 337 7,4 C 0,0 km/h (0 Bft)
24.05.2015 10:15 9,5 C 10,8 C 87 % 1017,1 hPa 0,0 mm 0,0 km/h (0 Bft) S-SW 202 7,4 C 0,0 km/h (0 Bft)
24.05.2015 10:20 9,7 C 11,0 C 87 % 1017,1 hPa 0,0 mm 0,0 km/h (0 Bft) N-NO 22 7,6 C 0,0 km/h (0 Bft)
24.05.2015 10:25 9,7 C 11,1 C 87 % 1017,1 hPa 0,0 mm 0,0 km/h (0 Bft) N-NO 22 7,6 C 0,0 km/h (0 Bft)
24.05.2015 10:30 9,6 C 11,1 C 87 % 1017,1 hPa 0,0 mm 1,8 km/h (1 Bft) NO 45 7,5 C 3,9 km/h (1 Bft)
24.05.2015 10:35 9,7 C 11,3 C 86 % 1017,3 hPa 0,0 mm 3,6 km/h (1 Bft) O-NO 67 7,5 C 6,2 km/h (2 Bft)
24.05.2015 10:40 9,8 C 11,5 C 86 % 1017,3 hPa 0,0 mm 3,1 km/h (1 Bft) O-NO 67 7,6 C 3,4 km/h (1 Bft)
24.05.2015 10:45 9,9 C 11,7 C 86 % 1017,3 hPa 0,0 mm 2,3 km/h (1 Bft) NO 45 7,7 C 7,5 km/h (2 Bft)
24.05.2015 10:50 10,0 C 12,0 C 85 % 1017,3 hPa 0,0 mm 2,3 km/h (1 Bft) O-NO 67 7,6 C 0,0 km/h (0 Bft)
24.05.2015 10:55 10,2 C 12,4 C 85 % 1017,5 hPa 0,0 mm 2,3 km/h (1 Bft) SO 135 7,8 C 3,1 km/h (1 Bft)
24.05.2015 11:00 10,5 C 13,0 C 85 % 1017,5 hPa 0,0 mm 1,8 km/h (1 Bft) N-NW 337 8,1 C 7,5 km/h (2 Bft)
24.05.2015 11:05 10,7 C 13,2 C 85 % 1017,5 hPa 0,0 mm 2,8 km/h (1 Bft) O-NO 67 8,3 C 10,9 km/h (2 Bft)
24.05.2015 11:10 10,7 C 13,5 C 84 % 1017,5 hPa 0,0 mm 4,4 km/h (1 Bft) O-NO 67 8,1 C 6,2 km/h (2 Bft)
24.05.2015 11:15 10,7 C 13,7 C 84 % 1017,9 hPa 0,0 mm 4,1 km/h (1 Bft) O-NO 67 8,1 C 7,3 km/h (2 Bft)
24.05.2015 11:20 10,7 C 13,9 C 83 % 1017,9 hPa 0,0 mm 4,7 km/h (1 Bft) O 90 7,9 C 7,8 km/h (2 Bft)
24.05.2015 11:25 10,8 C 14,0 C 83 % 1017,9 hPa 0,0 mm 4,9 km/h (1 Bft) NO 45 8,0 C 8,8 km/h (2 Bft)
24.05.2015 11:30 11,1 C 14,3 C 82 % 1017,9 hPa 0,0 mm 4,9 km/h (1 Bft) O-NO 67 8,1 C 6,2 km/h (2 Bft)
24.05.2015 11:35 11,1 C 14,5 C 82 % 1017,6 hPa 0,0 mm 4,9 km/h (1 Bft) NO 45 8,1 C 5,7 km/h (1 Bft)
24.05.2015 11:40 11,1 C 14,6 C 81 % 1017,6 hPa 0,0 mm 5,4 km/h (1 Bft) O-NO 67 8,0 C 7,8 km/h (2 Bft)
24.05.2015 11:45 11,3 C 14,8 C 80 % 1017,6 hPa 0,0 mm 5,7 km/h (1 Bft) N 360 8,0 C 12,9 km/h (3 Bft)
24.05.2015 11:50 11,3 C 15,1 C 79 % 1017,6 hPa 0,0 mm 5,4 km/h (1 Bft) O-NO 67 7,8 C 3,6 km/h (1 Bft)
24.05.2015 11:55 11,5 C 15,4 C 79 % 1017,7 hPa 0,0 mm 5,7 km/h (1 Bft) N-NO 22 8,0 C 5,2 km/h (1 Bft)
24.05.2015 12:00 11,7 C 15,9 C 78 % 1017,7 hPa 0,0 mm 5,7 km/h (1 Bft) O-NO 67 8,0 C 11,4 km/h (2 Bft)
24.05.2015 12:05 11,7 C 15,7 C 78 % 1017,7 hPa 0,0 mm 8,5 km/h (2 Bft) O-NO 67 8,0 C 16,6 km/h (3 Bft)
24.05.2015 12:10 11,5 C 15,4 C 77 % 1017,7 hPa 0,0 mm 10,4 km/h (2 Bft) NO 45 7,6 C 11,4 km/h (2 Bft)
24.05.2015 12:15 11,4 C 15,2 C 77 % 1017,9 hPa 0,0 mm 9,8 km/h (2 Bft) O 90 7,5 C 12,7 km/h (3 Bft)
24.05.2015 12:20 11,3 C 15,0 C 76 % 1017,9 hPa 0,0 mm 9,6 km/h (2 Bft) O-NO 67 7,2 C 9,3 km/h (2 Bft)
24.05.2015 12:25 11,4 C 15,2 C 76 % 1017,9 hPa 0,0 mm 9,6 km/h (2 Bft) O-NO 67 7,3 C 20,2 km/h (4 Bft)
24.05.2015 12:30 11,6 C 15,4 C 76 % 1017,9 hPa 0,0 mm 8,3 km/h (2 Bft) O-SO 112 7,5 C 12,4 km/h (3 Bft)
24.05.2015 12:35 11,7 C 15,4 C 76 % 1017,8 hPa 0,0 mm 9,6 km/h (2 Bft) NO 45 7,6 C 13,2 km/h (3 Bft)
24.05.2015 12:40 11,8 C 15,5 C 75 % 1017,8 hPa 0,0 mm 10,9 km/h (2 Bft) O-NO 67 7,5 C 16,3 km/h (3 Bft)
24.05.2015 12:45 11,8 C 15,6 C 76 % 1017,8 hPa 0,0 mm 9,3 km/h (2 Bft) NO 45 7,7 C 9,6 km/h (2 Bft)
24.05.2015 12:50 12,0 C 16,1 C 75 % 1017,8 hPa 0,0 mm 8,3 km/h (2 Bft) O-NO 67 7,7 C 5,7 km/h (1 Bft)
24.05.2015 12:55 12,0 C 15,8 C 75 % 1017,8 hPa 0,0 mm 8,5 km/h (2 Bft) NO 45 7,7 C 10,4 km/h (2 Bft)
24.05.2015 13:00 12,3 C 16,0 C 75 % 1017,8 hPa 0,0 mm 7,5 km/h (2 Bft) NO 45 8,0 C 12,9 km/h (3 Bft)
24.05.2015 13:05 12,4 C 16,1 C 75 % 1017,8 hPa 0,0 mm 7,0 km/h (2 Bft) N-NO 22 8,1 C 10,4 km/h (2 Bft)
24.05.2015 13:10 12,7 C 17,1 C 75 % 1017,8 hPa 0,0 mm 8,8 km/h (2 Bft) O 90 8,4 C 4,9 km/h (1 Bft)
24.05.2015 13:15 12,5 C 17,0 C 75 % 1017,8 hPa 0,0 mm 7,8 km/h (2 Bft) O 90 8,2 C 26,7 km/h (4 Bft)
24.05.2015 13:20 12,6 C 16,9 C 74 % 1017,8 hPa 0,0 mm 5,7 km/h (1 Bft) NO 45 8,1 C 8,3 km/h (2 Bft)
24.05.2015 13:25 12,7 C 17,0 C 74 % 1017,8 hPa 0,0 mm 7,8 km/h (2 Bft) N-NO 22 8,2 C 16,1 km/h (3 Bft)
24.05.2015 13:30 13,0 C 17,0 C 73 % 1017,8 hPa 0,0 mm 9,6 km/h (2 Bft) O-NO 67 8,3 C 10,9 km/h (2 Bft)
24.05.2015 13:35 13,0 C 17,3 C 72 % 1017,8 hPa 0,0 mm 8,8 km/h (2 Bft) NO 45 8,1 C 6,7 km/h (2 Bft)
24.05.2015 13:40 13,1 C 17,5 C 71 % 1017,8 hPa 0,0 mm 8,8 km/h (2 Bft) O-NO 67 8,0 C 10,4 km/h (2 Bft)
24.05.2015 13:45 13,3 C 17,9 C 71 % 1017,8 hPa 0,0 mm 8,3 km/h (2 Bft) O-NO 67 8,2 C 5,7 km/h (1 Bft)
24.05.2015 13:50 13,2 C 17,5 C 71 % 1017,8 hPa 0,0 mm 7,5 km/h (2 Bft) N-NW 337 8,1 C 11,1 km/h (2 Bft)
24.05.2015 13:55 13,3 C 17,4 C 70 % 1017,6 hPa 0,0 mm 8,5 km/h (2 Bft) O-NO 67 7,9 C 17,1 km/h (3 Bft)
24.05.2015 14:00 13,4 C 17,7 C 70 % 1017,6 hPa 0,0 mm 9,8 km/h (2 Bft) SO 135 8,0 C 8,0 km/h (2 Bft)
24.05.2015 14:05 13,6 C 18,1 C 70 % 1017,6 hPa 0,0 mm 9,1 km/h (2 Bft) O-SO 112 8,2 C 9,6 km/h (2 Bft)
24.05.2015 14:10 14,2 C 19,3 C 69 % 1017,6 hPa 0,0 mm 7,8 km/h (2 Bft) NO 45 8,6 C 13,2 km/h (3 Bft)
24.05.2015 14:15 13,9 C 18,9 C 69 % 1017,6 hPa 0,0 mm 8,8 km/h (2 Bft) O-SO 112 8,3 C 13,7 km/h (3 Bft)
24.05.2015 14:20 13,3 C 16,8 C 69 % 1017,6 hPa 0,0 mm 9,6 km/h (2 Bft) N-NO 22 7,7 C 15,3 km/h (3 Bft)
24.05.2015 14:25 12,9 C 15,5 C 69 % 1017,6 hPa 0,0 mm 9,3 km/h (2 Bft) O-NO 67 7,4 C 14,2 km/h (3 Bft)
24.05.2015 14:30 12,5 C 14,3 C 71 % 1017,6 hPa 0,0 mm 8,3 km/h (2 Bft) O-SO 112 7,4 C 7,0 km/h (2 Bft)
24.05.2015 14:35 12,5 C 13,9 C 72 % 1017,6 hPa 0,0 mm 8,0 km/h (2 Bft) N-NO 22 7,6 C 10,6 km/h (2 Bft)
24.05.2015 14:40 12,4 C 13,9 C 72 % 1017,6 hPa 0,0 mm 8,8 km/h (2 Bft) NO 45 7,5 C 9,6 km/h (2 Bft)
24.05.2015 14:45 12,5 C 14,0 C 72 % 1017,6 hPa 0,0 mm 8,5 km/h (2 Bft) NO 45 7,6 C 12,7 km/h (3 Bft)
24.05.2015 14:50 12,5 C 14,2 C 73 % 1017,6 hPa 0,0 mm 8,5 km/h (2 Bft) O-SO 112 7,8 C 12,2 km/h (2 Bft)
24.05.2015 14:55 12,5 C 14,4 C 73 % 1017,5 hPa 0,0 mm 8,5 km/h (2 Bft) SO 135 7,8 C 10,9 km/h (2 Bft)
24.05.2015 15:00 12,6 C 14,6 C 72 % 1017,5 hPa 0,0 mm 8,0 km/h (2 Bft) O-NO 67 7,7 C 11,7 km/h (2 Bft)
24.05.2015 15:05 12,5 C 14,6 C 72 % 1017,5 hPa 0,0 mm 9,1 km/h (2 Bft) O-NO 67 7,6 C 15,8 km/h (3 Bft)
24.05.2015 15:10 12,4 C 14,3 C 72 % 1017,5 hPa 0,0 mm 8,5 km/h (2 Bft) O-NO 67 7,5 C 12,4 km/h (3 Bft)
24.05.2015 15:15 12,3 C 14,0 C 72 % 1017,5 hPa 0,0 mm 7,0 km/h (2 Bft) O-NO 67 7,4 C 3,9 km/h (1 Bft)
24.05.2015 15:20 12,3 C 13,7 C 72 % 1017,5 hPa 0,0 mm 6,5 km/h (2 Bft) N-NO 22 7,4 C 4,7 km/h (1 Bft)
24.05.2015 15:25 12,2 C 13,5 C 72 % 1017,5 hPa 0,0 mm 6,2 km/h (2 Bft) N-NO 22 7,3 C 10,6 km/h (2 Bft)
24.05.2015 15:30 11,9 C 12,9 C 72 % 1017,5 hPa 0,0 mm 7,8 km/h (2 Bft) O-SO 112 7,0 C 8,8 km/h (2 Bft)
24.05.2015 15:35 11,7 C 12,5 C 73 % 1017,6 hPa 0,0 mm 7,5 km/h (2 Bft) O-NO 67 7,0 C 4,7 km/h (1 Bft)
24.05.2015 15:40 11,6 C 12,3 C 74 % 1017,6 hPa 0,0 mm 5,7 km/h (1 Bft) NO 45 7,1 C 3,6 km/h (1 Bft)
24.05.2015 15:45 11,7 C 12,5 C 74 % 1017,6 hPa 0,0 mm 4,9 km/h (1 Bft) NO 45 7,2 C 0,0 km/h (0 Bft)
24.05.2015 15:50 11,9 C 13,0 C 75 % 1017,6 hPa 0,0 mm 4,1 km/h (1 Bft) O-SO 112 7,6 C 4,4 km/h (1 Bft)
24.05.2015 15:55 12,0 C 13,5 C 75 % 1017,4 hPa 0,0 mm 3,6 km/h (1 Bft) N 360 7,7 C 4,9 km/h (1 Bft)
24.05.2015 16:00 12,1 C 13,8 C 75 % 1017,4 hPa 0,0 mm 2,8 km/h (1 Bft) O 90 7,8 C 0,0 km/h (0 Bft)
24.05.2015 16:05 12,1 C 13,9 C 75 % 1017,4 hPa 0,0 mm 2,1 km/h (1 Bft) O-SO 112 7,8 C 2,6 km/h (1 Bft)
24.05.2015 16:10 12,0 C 13,6 C 75 % 1017,4 hPa 0,0 mm 2,6 km/h (1 Bft) O-NO 67 7,7 C 5,4 km/h (1 Bft)
24.05.2015 16:15 12,0 C 13,5 C 75 % 1017,3 hPa 0,0 mm 4,1 km/h (1 Bft) O-NO 67 7,7 C 6,5 km/h (2 Bft)
24.05.2015 16:20 12,3 C 13,8 C 75 % 1017,3 hPa 0,0 mm 3,9 km/h (1 Bft) NO 45 8,0 C 4,9 km/h (1 Bft)
24.05.2015 16:25 12,5 C 14,1 C 75 % 1017,3 hPa 0,0 mm 3,6 km/h (1 Bft) NO 45 8,2 C 0,0 km/h (0 Bft)
24.05.2015 16:30 12,9 C 15,4 C 74 % 1017,3 hPa 0,0 mm 3,6 km/h (1 Bft) NW 315 8,4 C 3,9 km/h (1 Bft)
24.05.2015 16:35 13,2 C 17,1 C 73 % 1017,2 hPa 0,0 mm 2,3 km/h (1 Bft) N-NW 337 8,5 C 5,2 km/h (1 Bft)
24.05.2015 16:40 13,0 C 16,9 C 72 % 1017,2 hPa 0,0 mm 3,6 km/h (1 Bft) N 360 8,1 C 3,1 km/h (1 Bft)
24.05.2015 16:45 12,7 C 15,5 C 72 % 1017,2 hPa 0,0 mm 6,5 km/h (2 Bft) NO 45 7,8 C 14,2 km/h (3 Bft)
24.05.2015 16:50 12,3 C 13,9 C 73 % 1017,2 hPa 0,0 mm 8,3 km/h (2 Bft) O 90 7,6 C 7,3 km/h (2 Bft)
24.05.2015 16:55 12,2 C 13,5 C 73 % 1017,1 hPa 0,0 mm 6,7 km/h (2 Bft) N 360 7,5 C 6,2 km/h (2 Bft)
24.05.2015 17:00 12,2 C 13,2 C 73 % 1017,1 hPa 0,0 mm 3,6 km/h (1 Bft) O-SO 112 7,5 C 5,7 km/h (1 Bft)
24.05.2015 17:05 12,2 C 13,2 C 74 % 1017,1 hPa 0,0 mm 2,6 km/h (1 Bft) NO 45 7,7 C 3,6 km/h (1 Bft)
24.05.2015 17:10 12,2 C 13,3 C 74 % 1017,1 hPa 0,0 mm 3,1 km/h (1 Bft) N-NO 22 7,7 C 8,3 km/h (2 Bft)
24.05.2015 17:15 12,2 C 13,3 C 73 % 1017,0 hPa 0,0 mm 3,6 km/h (1 Bft) N-NO 22 7,5 C 10,4 km/h (2 Bft)
24.05.2015 17:20 12,3 C 13,4 C 73 % 1017,0 hPa 0,0 mm 3,6 km/h (1 Bft) O-NO 67 7,6 C 0,0 km/h (0 Bft)
24.05.2015 17:25 12,4 C 13,6 C 73 % 1017,0 hPa 0,0 mm 3,1 km/h (1 Bft) O 90 7,7 C 0,0 km/h (0 Bft)
24.05.2015 17:30 12,6 C 13,9 C 73 % 1017,0 hPa 0,0 mm 1,6 km/h (1 Bft) N-NO 22 7,9 C 4,1 km/h (1 Bft)
24.05.2015 17:35 12,6 C 13,9 C 73 % 1016,8 hPa 0,0 mm 2,1 km/h (1 Bft) N-NO 22 7,9 C 0,0 km/h (0 Bft)
24.05.2015 17:40 12,7 C 14,1 C 72 % 1016,8 hPa 0,0 mm 2,6 km/h (1 Bft) N-NO 22 7,8 C 5,4 km/h (1 Bft)
24.05.2015 17:45 12,7 C 14,1 C 72 % 1016,8 hPa 0,0 mm 2,8 km/h (1 Bft) NO 45 7,8 C 4,9 km/h (1 Bft)
24.05.2015 17:50 12,7 C 14,4 C 72 % 1016,8 hPa 0,0 mm 1,8 km/h (1 Bft) O-NO 67 7,8 C 0,0 km/h (0 Bft)
24.05.2015 17:55 12,8 C 14,9 C 72 % 1016,6 hPa 0,0 mm 0,8 km/h (0 Bft) O-NO 67 7,9 C 0,0 km/h (0 Bft)
24.05.2015 18:00 13,0 C 15,5 C 70 % 1016,6 hPa 0,0 mm 0,3 km/h (0 Bft) O-SO 112 7,7 C 0,0 km/h (0 Bft)
24.05.2015 18:05 13,1 C 15,8 C 70 % 1016,6 hPa 0,0 mm 1,8 km/h (1 Bft) N-NO 22 7,8 C 7,8 km/h (2 Bft)
24.05.2015 18:10 13,1 C 15,4 C 70 % 1016,6 hPa 0,0 mm 5,7 km/h (1 Bft) O-NO 67 7,8 C 14,2 km/h (3 Bft)
24.05.2015 18:15 13,0 C 14,8 C 69 % 1016,6 hPa 0,0 mm 7,3 km/h (2 Bft) O-NO 67 7,4 C 4,1 km/h (1 Bft)
24.05.2015 18:20 12,8 C 14,2 C 71 % 1016,6 hPa 0,0 mm 5,7 km/h (1 Bft) NO 45 7,7 C 5,7 km/h (1 Bft)
24.05.2015 18:25 12,8 C 14,1 C 71 % 1016,6 hPa 0,0 mm 3,9 km/h (1 Bft) O-NO 67 7,7 C 7,0 km/h (2 Bft)
24.05.2015 18:30 12,8 C 13,9 C 71 % 1016,6 hPa 0,0 mm 4,7 km/h (1 Bft) N-NO 22 7,7 C 7,0 km/h (2 Bft)
24.05.2015 18:35 12,8 C 14,0 C 70 % 1016,7 hPa 0,0 mm 4,7 km/h (1 Bft) N-NO 22 7,5 C 2,8 km/h (1 Bft)
24.05.2015 18:40 12,8 C 14,1 C 71 % 1016,7 hPa 0,0 mm 2,6 km/h (1 Bft) SO 135 7,7 C 0,0 km/h (0 Bft)
24.05.2015 18:45 12,8 C 14,6 C 71 % 1016,7 hPa 0,0 mm 1,8 km/h (1 Bft) N-NO 22 7,7 C 4,9 km/h (1 Bft)
24.05.2015 18:50 12,8 C 15,6 C 69 % 1016,7 hPa 0,0 mm 4,1 km/h (1 Bft) O-NO 67 7,3 C 9,3 km/h (2 Bft)
24.05.2015 18:55 12,7 C 14,9 C 69 % 1016,6 hPa 0,0 mm 5,7 km/h (1 Bft) NO 45 7,2 C 7,5 km/h (2 Bft)
24.05.2015 19:00 12,4 C 13,9 C 70 % 1016,6 hPa 0,0 mm 4,1 km/h (1 Bft) O-NO 67 7,1 C 4,9 km/h (1 Bft)
24.05.2015 19:05 12,3 C 13,4 C 71 % 1016,6 hPa 0,0 mm 2,6 km/h (1 Bft) N-NO 22 7,2 C 2,6 km/h (1 Bft)
24.05.2015 19:10 12,1 C 12,8 C 71 % 1016,6 hPa 0,0 mm 2,1 km/h (1 Bft) O-NO 67 7,0 C 0,0 km/h (0 Bft)
24.05.2015 19:15 11,9 C 12,5 C 72 % 1016,8 hPa 0,0 mm 1,8 km/h (1 Bft) O 90 7,0 C 0,0 km/h (0 Bft)
24.05.2015 19:20 11,8 C 12,2 C 73 % 1016,8 hPa 0,0 mm 1,3 km/h (1 Bft) O-NO 67 7,1 C 0,0 km/h (0 Bft)
24.05.2015 19:25 11,8 C 12,1 C 74 % 1016,8 hPa 0,0 mm 0,5 km/h (0 Bft) O-SO 112 7,3 C 0,0 km/h (0 Bft)
24.05.2015 19:30 11,7 C 11,9 C 74 % 1016,8 hPa 0,0 mm 0,0 km/h (0 Bft) O-NO 67 7,2 C 0,0 km/h (0 Bft)
24.05.2015 19:35 11,6 C 11,8 C 74 % 1016,6 hPa 0,0 mm 0,0 km/h (0 Bft) O-NO 67 7,1 C 0,0 km/h (0 Bft)
24.05.2015 19:40 11,6 C 11,7 C 75 % 1016,6 hPa 0,0 mm 0,0 km/h (0 Bft) O-NO 67 7,3 C 0,0 km/h (0 Bft)
24.05.2015 19:45 11,5 C 11,7 C 75 % 1016,6 hPa 0,0 mm 0,0 km/h (0 Bft) N-NO 22 7,2 C 0,0 km/h (0 Bft)
24.05.2015 19:50 11,4 C 11,6 C 75 % 1016,6 hPa 0,0 mm 0,0 km/h (0 Bft) O-SO 112 7,1 C 0,0 km/h (0 Bft)
24.05.2015 19:55 11,4 C 11,6 C 75 % 1016,6 hPa 0,0 mm 0,5 km/h (0 Bft) O-NO 67 7,1 C 3,9 km/h (1 Bft)
24.05.2015 20:00 11,3 C 11,5 C 75 % 1016,6 hPa 0,0 mm 0,5 km/h (0 Bft) O 90 7,0 C 0,0 km/h (0 Bft)
24.05.2015 20:05 11,3 C 11,4 C 75 % 1016,6 hPa 0,0 mm 0,5 km/h (0 Bft) SO 135 7,0 C 0,0 km/h (0 Bft)
24.05.2015 20:10 11,1 C 11,2 C 75 % 1016,6 hPa 0,0 mm 0,3 km/h (0 Bft) SO 135 6,8 C 0,0 km/h (0 Bft)
24.05.2015 20:15 11,1 C 11,1 C 75 % 1016,6 hPa 0,0 mm 0,0 km/h (0 Bft) SO 135 6,8 C 0,0 km/h (0 Bft)
24.05.2015 20:20 10,8 C 10,8 C 76 % 1016,6 hPa 0,0 mm 0,0 km/h (0 Bft) S-SO 157 6,7 C 0,0 km/h (0 Bft)
24.05.2015 20:25 10,6 C 10,6 C 76 % 1016,6 hPa 0,0 mm 0,0 km/h (0 Bft) S-SO 157 6,5 C 0,0 km/h (0 Bft)
24.05.2015 20:30 10,2 C 10,1 C 76 % 1016,6 hPa 0,0 mm 0,3 km/h (0 Bft) S 180 6,2 C 0,0 km/h (0 Bft)
24.05.2015 20:35 10,0 C 9,9 C 77 % 1016,6 hPa 0,0 mm 0,3 km/h (0 Bft) S 180 6,2 C 0,0 km/h (0 Bft)
24.05.2015 20:40 9,6 C 9,5 C 78 % 1016,6 hPa 0,0 mm 0,3 km/h (0 Bft) O-SO 112 6,0 C 3,6 km/h (1 Bft)
24.05.2015 20:45 9,5 C 9,4 C 78 % 1016,6 hPa 0,0 mm 0,5 km/h (0 Bft) S 180 5,9 C 3,9 km/h (1 Bft)
24.05.2015 20:50 9,3 C 9,1 C 79 % 1016,6 hPa 0,0 mm 0,8 km/h (0 Bft) S-SO 157 5,8 C 0,0 km/h (0 Bft)
24.05.2015 20:55 9,2 C 9,0 C 79 % 1016,6 hPa 0,0 mm 1,0 km/h (0 Bft) S-SO 157 5,8 C 3,6 km/h (1 Bft)
24.05.2015 21:00 8,9 C 8,7 C 80 % 1016,6 hPa 0,0 mm 0,5 km/h (0 Bft) SO 135 5,6 C 0,0 km/h (0 Bft)
24.05.2015 21:05 8,7 C 8,5 C 80 % 1016,6 hPa 0,0 mm 0,5 km/h (0 Bft) S-SO 157 5,4 C 3,4 km/h (1 Bft)
24.05.2015 21:10 8,7 C 8,5 C 81 % 1016,6 hPa 0,0 mm 1,8 km/h (1 Bft) S 180 5,6 C 3,9 km/h (1 Bft)
24.05.2015 21:15 8,6 C 8,4 C 81 % 1016,7 hPa 0,0 mm 3,1 km/h (1 Bft) S 180 5,5 C 4,9 km/h (1 Bft)
24.05.2015 21:20 8,4 C 8,3 C 80 % 1016,7 hPa 0,0 mm 2,3 km/h (1 Bft) S-SO 157 5,2 C 0,0 km/h (0 Bft)
24.05.2015 21:25 8,2 C 8,1 C 80 % 1016,7 hPa 0,0 mm 1,3 km/h (1 Bft) S 180 5,0 C 0,0 km/h (0 Bft)
24.05.2015 21:30 7,8 C 7,7 C 81 % 1016,7 hPa 0,0 mm 0,0 km/h (0 Bft) S-SO 157 4,7 C 0,0 km/h (0 Bft)
24.05.2015 21:35 7,8 C 7,8 C 81 % 1016,7 hPa 0,0 mm 0,3 km/h (0 Bft) S 180 4,7 C 0,0 km/h (0 Bft)
24.05.2015 21:40 7,9 C 8,0 C 82 % 1016,7 hPa 0,0 mm 0,5 km/h (0 Bft) SW 225 5,0 C 2,6 km/h (1 Bft)
24.05.2015 21:45 8,1 C 8,1 C 82 % 1016,7 hPa 0,0 mm 0,8 km/h (0 Bft) S 180 5,2 C 0,0 km/h (0 Bft)
24.05.2015 21:50 8,0 C 7,9 C 83 % 1016,7 hPa 0,0 mm 0,8 km/h (0 Bft) S-SO 157 5,3 C 0,0 km/h (0 Bft)
24.05.2015 21:55 7,9 C 7,8 C 83 % 1016,6 hPa 0,0 mm 0,0 km/h (0 Bft) S-SO 157 5,2 C 0,0 km/h (0 Bft)
24.05.2015 22:00 7,8 C 7,6 C 83 % 1016,6 hPa 0,0 mm 0,0 km/h (0 Bft) S 180 5,1 C 0,0 km/h (0 Bft)
24.05.2015 22:05 7,9 C 7,8 C 83 % 1016,6 hPa 0,0 mm 0,0 km/h (0 Bft) SO 135 5,2 C 0,0 km/h (0 Bft)
24.05.2015 22:10 7,7 C 7,6 C 84 % 1016,6 hPa 0,0 mm 0,0 km/h (0 Bft) SO 135 5,2 C 0,0 km/h (0 Bft)
24.05.2015 22:15 7,6 C 7,4 C 84 % 1016,7 hPa 0,0 mm 0,0 km/h (0 Bft) S 180 5,1 C 0,0 km/h (0 Bft)
24.05.2015 22:20 7,6 C 7,4 C 84 % 1016,7 hPa 0,0 mm 0,0 km/h (0 Bft) O-SO 112 5,1 C 0,0 km/h (0 Bft)
24.05.2015 22:25 7,5 C 7,3 C 84 % 1016,7 hPa 0,0 mm 0,0 km/h (0 Bft) SO 135 5,0 C 0,0 km/h (0 Bft)
24.05.2015 22:30 7,5 C 7,4 C 83 % 1016,7 hPa 0,0 mm 0,0 km/h (0 Bft) O-SO 112 4,8 C 0,0 km/h (0 Bft)
24.05.2015 22:35 7,4 C 7,2 C 84 % 1016,8 hPa 0,0 mm 0,0 km/h (0 Bft) O-SO 112 4,9 C 0,0 km/h (0 Bft)
24.05.2015 22:40 7,2 C 7,0 C 84 % 1016,8 hPa 0,0 mm 0,0 km/h (0 Bft) O-SO 112 4,7 C 0,0 km/h (0 Bft)
24.05.2015 22:45 7,1 C 7,0 C 84 % 1016,8 hPa 0,0 mm 0,0 km/h (0 Bft) O-SO 112 4,6 C 0,0 km/h (0 Bft)
24.05.2015 22:50 7,1 C 6,9 C 84 % 1016,8 hPa 0,0 mm 0,0 km/h (0 Bft) O-SO 112 4,6 C 0,0 km/h (0 Bft)
24.05.2015 22:55 7,1 C 6,9 C 85 % 1016,8 hPa 0,0 mm 0,0 km/h (0 Bft) O-SO 112 4,8 C 0,0 km/h (0 Bft)
24.05.2015 23:00 7,4 C 7,1 C 86 % 1016,8 hPa 0,0 mm 0,0 km/h (0 Bft) S 180 5,2 C 0,0 km/h (0 Bft)
24.05.2015 23:05 7,4 C 7,2 C 86 % 1016,8 hPa 0,0 mm 0,0 km/h (0 Bft) S 180 5,2 C 0,0 km/h (0 Bft)
24.05.2015 23:10 7,3 C 7,2 C 84 % 1016,8 hPa 0,0 mm 0,0 km/h (0 Bft) SO 135 4,8 C 0,0 km/h (0 Bft)
24.05.2015 23:15 7,4 C 7,3 C 84 % 1016,8 hPa 0,0 mm 0,0 km/h (0 Bft) SO 135 4,9 C 0,0 km/h (0 Bft)
24.05.2015 23:20 7,6 C 7,6 C 85 % 1016,8 hPa 0,0 mm 0,8 km/h (0 Bft) SW 225 5,2 C 3,1 km/h (1 Bft)
24.05.2015 23:25 7,6 C 7,5 C 85 % 1016,8 hPa 0,0 mm 1,0 km/h (0 Bft) W 270 5,2 C 2,8 km/h (1 Bft)
24.05.2015 23:30 7,6 C 7,6 C 85 % 1016,8 hPa 0,0 mm 1,3 km/h (1 Bft) W-SW 247 5,2 C 2,8 km/h (1 Bft)
24.05.2015 23:35 7,7 C 7,6 C 87 % 1016,7 hPa 0,0 mm 1,6 km/h (1 Bft) W-SW 247 5,7 C 0,0 km/h (0 Bft)
24.05.2015 23:40 7,5 C 7,4 C 87 % 1016,7 hPa 0,0 mm 0,5 km/h (0 Bft) W 270 5,5 C 0,0 km/h (0 Bft)
24.05.2015 23:45 7,5 C 7,5 C 85 % 1016,7 hPa 0,0 mm 0,0 km/h (0 Bft) S 180 5,1 C 0,0 km/h (0 Bft)
24.05.2015 23:50 7,7 C 7,6 C 85 % 1016,7 hPa 0,0 mm 0,3 km/h (0 Bft) S 180 5,3 C 0,0 km/h (0 Bft)
24.05.2015 23:55 7,8 C 7,6 C 88 % 1016,4 hPa 0,0 mm 0,3 km/h (0 Bft) S 180 5,9 C 0,0 km/h (0 Bft)
_ Min-Zeit 05:40 04:40 18:55 05:50 - 23:45 - - 01:05 23:55
Minimum _ 6,1 C 6,0 C 69 % 1015,9 hPa - 0,0 km/h (0 Bft) - - 4,2 C 0,0 km/h (0 Bft)
_ Max-Zeit 14:10 14:10 06:10 12:30 03:50 12:40 - - 14:10 13:15
Maximum _ 14,2 C 19,3 C 91 % 1017,9 hPa 0,7 mm 10,9 km/h
O-NO (2 Bft)
- - 8,6 C 26,7 km/h
O (4 Bft)
Durchschnitt _ 9,1 C 10,1 C 82 % 1016,9 hPa #2,1 mm 2,2 km/h (1 Bft) O-NO - 6,1 C 3,0 km/h (1 Bft)